createdAt,value
2022-12-18T00:02:12.996Z,-7.24
2022-12-18T00:04:39.559Z,-7.14
2022-12-18T00:07:06.029Z,-7.36
2022-12-18T00:09:40.269Z,-7.35
2022-12-18T00:14:42.821Z,-7.53
2022-12-18T00:17:09.279Z,-7.56
2022-12-18T00:19:36.022Z,-7.64
2022-12-18T00:22:02.899Z,-7.71
2022-12-18T00:24:29.344Z,-7.71
2022-12-18T00:26:55.834Z,-7.70
2022-12-18T00:29:22.246Z,-7.87
2022-12-18T00:31:48.759Z,-8.04
2022-12-18T00:34:15.390Z,-8.65
2022-12-18T00:36:42.430Z,-8.61
2022-12-18T00:39:10.661Z,-8.48
2022-12-18T00:41:55.840Z,-8.33
2022-12-18T00:44:22.402Z,-8.47
2022-12-18T00:46:49.372Z,-8.52
2022-12-18T00:49:18.779Z,-8.51
2022-12-18T00:51:46.355Z,-8.48
2022-12-18T00:54:12.832Z,-8.54
2022-12-18T00:56:48.181Z,-8.49
2022-12-18T00:59:16.168Z,-8.60
2022-12-18T01:01:43.630Z,-8.60
2022-12-18T01:04:10.523Z,-8.58
2022-12-18T01:06:37.106Z,-8.66
2022-12-18T01:09:04.347Z,-8.70
2022-12-18T01:11:31.088Z,-8.80
2022-12-18T01:14:00.550Z,-8.87
2022-12-18T01:16:27.093Z,-8.77
2022-12-18T01:18:55.639Z,-8.71
2022-12-18T01:21:23.671Z,-8.74
2022-12-18T01:23:54.967Z,-8.75
2022-12-18T01:26:21.675Z,-8.79
2022-12-18T01:28:48.588Z,-8.83
2022-12-18T01:31:27.724Z,-8.88
2022-12-18T01:33:54.910Z,-8.86
2022-12-18T01:36:24.585Z,-8.93
2022-12-18T01:38:51.942Z,-8.93
2022-12-18T01:41:21.376Z,-8.83
2022-12-18T01:43:58.328Z,-8.72
2022-12-18T01:46:25.688Z,-8.69
2022-12-18T01:48:57.512Z,-8.64
2022-12-18T01:51:25.534Z,-8.59
2022-12-18T01:53:52.176Z,-8.62
2022-12-18T01:56:21.350Z,-8.52
2022-12-18T01:59:02.144Z,-8.55
2022-12-18T02:01:31.590Z,-8.66
2022-12-18T02:04:25.589Z,-8.65
2022-12-18T02:07:31.013Z,-8.73
2022-12-18T02:10:31.516Z,-8.59
2022-12-18T02:13:13.685Z,-8.58
2022-12-18T02:16:12.695Z,-8.63
2022-12-18T02:18:45.174Z,-8.73
2022-12-18T02:21:42.331Z,-8.70
2022-12-18T02:24:26.350Z,-8.80
2022-12-18T02:26:58.550Z,-8.83
2022-12-18T02:29:29.916Z,-8.73
2022-12-18T02:32:00.438Z,-8.60
2022-12-18T02:34:38.937Z,-8.58
2022-12-18T02:37:13.258Z,-8.56
2022-12-18T02:39:43.113Z,-8.45
2022-12-18T02:42:10.748Z,-8.37
2022-12-18T02:44:47.983Z,-8.42
2022-12-18T02:47:16.477Z,-8.34
2022-12-18T02:50:24.087Z,-8.30
2022-12-18T02:53:09.530Z,-8.22
2022-12-18T02:56:16.627Z,-8.18
2022-12-18T02:59:06.916Z,-8.14
2022-12-18T03:01:39.534Z,-8.23
2022-12-18T03:04:13.755Z,-8.21
2022-12-18T03:06:44.562Z,-8.20
2022-12-18T03:09:18.867Z,-8.26
2022-12-18T03:12:11.596Z,-8.19
2022-12-18T03:14:39.444Z,-8.28
2022-12-18T03:17:11.745Z,-8.32
2022-12-18T03:19:40.227Z,-8.33
2022-12-18T03:22:08.584Z,-8.34
2022-12-18T03:24:39.954Z,-8.36
2022-12-18T03:27:14.903Z,-8.47
2022-12-18T03:29:57.876Z,-8.60
2022-12-18T03:32:32.260Z,-8.63
2022-12-18T03:35:04.155Z,-8.64
2022-12-18T03:37:32.504Z,-8.64
2022-12-18T03:39:59.182Z,-8.66
2022-12-18T03:42:38.110Z,-8.72
2022-12-18T03:45:14.639Z,-8.70
2022-12-18T03:47:54.584Z,-8.76
2022-12-18T03:50:25.403Z,-8.83
2022-12-18T03:53:01.059Z,-8.87
2022-12-18T03:55:30.515Z,-8.95
2022-12-18T03:57:58.427Z,-8.95
2022-12-18T04:00:24.968Z,-8.93
2022-12-18T04:02:55.099Z,-9.00
2022-12-18T04:05:23.572Z,-8.90
2022-12-18T04:07:52.989Z,-8.95
2022-12-18T04:10:19.887Z,-8.97
2022-12-18T04:12:46.305Z,-9.02
2022-12-18T04:15:14.120Z,-9.06
2022-12-18T04:17:48.025Z,-9.10
2022-12-18T04:20:14.684Z,-9.11
2022-12-18T04:22:41.158Z,-9.15
2022-12-18T04:25:08.089Z,-9.13
2022-12-18T04:27:35.080Z,-9.10
2022-12-18T04:30:02.017Z,-9.16
2022-12-18T04:32:28.473Z,-9.23
2022-12-18T04:34:55.019Z,-9.33
2022-12-18T04:37:21.677Z,-9.30
2022-12-18T04:39:48.296Z,-9.02
2022-12-18T04:42:14.783Z,-9.08
2022-12-18T04:44:41.381Z,-8.89
2022-12-18T04:47:08.536Z,-8.83
2022-12-18T04:49:34.969Z,-8.93
2022-12-18T04:52:01.540Z,-9.05
2022-12-18T04:54:27.957Z,-8.94
2022-12-18T04:56:54.464Z,-8.75
2022-12-18T04:59:21.801Z,-8.83
2022-12-18T05:01:48.652Z,-8.94
2022-12-18T05:04:15.306Z,-8.90
2022-12-18T05:06:41.947Z,-8.90
2022-12-18T05:09:08.464Z,-9.03
2022-12-18T05:11:36.324Z,-9.09
2022-12-18T05:14:02.872Z,-9.09
2022-12-18T05:16:29.529Z,-9.01
2022-12-18T05:18:56.088Z,-9.01
2022-12-18T05:21:22.521Z,-8.98
2022-12-18T05:23:48.967Z,-9.00
2022-12-18T05:26:18.458Z,-9.01
2022-12-18T05:28:45.474Z,-9.08
2022-12-18T05:31:12.331Z,-9.14
2022-12-18T05:33:39.518Z,-9.13
2022-12-18T05:36:08.795Z,-9.18
2022-12-18T05:38:37.722Z,-9.18
2022-12-18T05:41:05.524Z,-9.25
2022-12-18T05:43:32.572Z,-9.38
2022-12-18T05:45:59.130Z,-9.49
2022-12-18T05:48:25.967Z,-9.43
2022-12-18T05:50:52.461Z,-9.38
2022-12-18T05:53:21.551Z,-9.38
2022-12-18T05:55:48.540Z,-9.36
2022-12-18T05:58:15.617Z,-9.38
2022-12-18T06:00:46.716Z,-9.41
2022-12-18T06:03:14.904Z,-9.45
2022-12-18T06:05:44.694Z,-9.48
2022-12-18T06:08:12.611Z,-9.51
2022-12-18T06:10:39.599Z,-9.55
2022-12-18T06:13:07.005Z,-9.59
2022-12-18T06:15:33.971Z,-9.60
2022-12-18T06:18:02.119Z,-9.58
2022-12-18T06:20:33.248Z,-9.49
2022-12-18T06:23:00.304Z,-9.38
2022-12-18T06:25:27.296Z,-9.39
2022-12-18T06:27:53.832Z,-9.38
2022-12-18T06:30:20.292Z,-9.35
2022-12-18T06:32:50.494Z,-9.37
2022-12-18T06:35:19.532Z,-9.30
2022-12-18T06:37:47.624Z,-9.34
2022-12-18T06:40:14.136Z,-9.37
2022-12-18T06:42:40.739Z,-9.38
2022-12-18T06:45:07.688Z,-9.56
2022-12-18T06:47:34.193Z,-9.49
2022-12-18T06:50:00.664Z,-9.47
2022-12-18T06:52:27.096Z,-9.53
2022-12-18T06:54:53.748Z,-9.37
2022-12-18T06:57:20.234Z,-9.29
2022-12-18T06:59:46.741Z,-9.36
2022-12-18T07:02:13.943Z,-9.03
2022-12-18T07:04:40.994Z,-9.00
2022-12-18T07:07:07.523Z,-8.91
2022-12-18T07:09:34.117Z,-8.86
2022-12-18T07:12:00.585Z,-8.91
2022-12-18T07:14:27.048Z,-9.01
2022-12-18T07:16:53.737Z,-8.98
2022-12-18T07:19:20.419Z,-9.12
2022-12-18T07:21:47.085Z,-9.03
2022-12-18T07:24:13.549Z,-9.18
2022-12-18T07:26:39.984Z,-9.48
2022-12-18T07:29:06.453Z,-9.36
2022-12-18T07:31:32.961Z,-9.17
2022-12-18T07:33:59.547Z,-8.88
2022-12-18T07:36:26.413Z,-9.02
2022-12-18T07:38:56.159Z,-9.33
2022-12-18T07:41:22.749Z,-9.14
2022-12-18T07:43:49.731Z,-9.11
2022-12-18T07:46:17.732Z,-8.76
2022-12-18T07:48:45.217Z,-8.72
2022-12-18T07:51:16.385Z,-8.86
2022-12-18T07:53:43.593Z,-8.59
2022-12-18T07:56:29.091Z,-8.51
2022-12-18T07:58:58.593Z,-8.39
2022-12-18T08:01:25.537Z,-8.25
2022-12-18T08:03:52.726Z,-8.10
2022-12-18T08:06:23.245Z,-8.00
2022-12-18T08:08:56.042Z,-7.92
2022-12-18T08:11:24.399Z,-7.69
2022-12-18T08:13:51.047Z,-7.66
2022-12-18T08:16:18.504Z,-7.49
2022-12-18T08:18:45.779Z,-7.02
2022-12-18T08:21:14.811Z,-6.68
2022-12-18T08:23:43.353Z,-6.41
2022-12-18T08:26:11.402Z,-6.05
2022-12-18T08:28:38.080Z,-5.82
2022-12-18T08:31:04.993Z,-5.57
2022-12-18T08:33:32.049Z,-5.37
2022-12-18T08:36:00.022Z,-5.15
2022-12-18T08:38:26.486Z,-4.80
2022-12-18T08:41:19.510Z,-4.49
2022-12-18T08:44:04.511Z,-4.19
2022-12-18T08:46:42.240Z,-3.81
2022-12-18T08:49:09.784Z,-3.26
2022-12-18T08:51:36.863Z,-2.90
2022-12-18T08:54:03.938Z,-2.76
2022-12-18T08:56:33.016Z,-2.53
2022-12-18T08:58:59.693Z,-2.54
2022-12-18T09:01:26.407Z,-2.44
2022-12-18T09:03:53.199Z,-2.52
2022-12-18T09:06:21.716Z,-2.42
2022-12-18T09:08:48.429Z,-2.55
2022-12-18T09:11:24.481Z,-2.78
2022-12-18T09:13:51.387Z,-2.73
2022-12-18T09:16:18.281Z,-2.66
2022-12-18T09:18:44.819Z,-2.69
2022-12-18T09:21:19.751Z,-2.65
2022-12-18T09:23:56.715Z,-2.73
2022-12-18T09:26:24.406Z,-2.65
2022-12-18T09:28:51.924Z,-2.69
2022-12-18T09:31:20.535Z,-2.69
2022-12-18T09:33:47.321Z,-2.77
2022-12-18T09:36:16.709Z,-2.77
2022-12-18T09:38:43.529Z,-2.74
2022-12-18T09:41:19.284Z,-2.60
2022-12-18T09:43:51.151Z,-2.52
2022-12-18T09:46:26.487Z,-2.36
2022-12-18T09:48:55.718Z,-2.30
2022-12-18T09:51:37.572Z,-2.18
2022-12-18T09:54:39.358Z,-2.10
2022-12-18T09:57:06.530Z,-2.18
2022-12-18T09:59:37.599Z,-2.15
2022-12-18T10:02:33.806Z,-2.22
2022-12-18T10:05:15.410Z,-2.24
2022-12-18T10:07:51.070Z,-2.18
2022-12-18T10:10:22.416Z,-2.02
2022-12-18T10:13:24.118Z,-2.09
2022-12-18T10:16:14.306Z,-2.16
2022-12-18T10:19:21.168Z,-2.22
2022-12-18T10:22:06.441Z,-2.25
2022-12-18T10:24:44.550Z,-2.38
2022-12-18T10:27:25.110Z,-2.31
2022-12-18T10:29:51.876Z,-2.30
2022-12-18T10:32:21.643Z,-2.25
2022-12-18T10:34:49.574Z,-2.17
2022-12-18T10:37:21.735Z,-2.04
2022-12-18T10:40:08.121Z,-1.75
2022-12-18T10:42:34.734Z,-1.83
2022-12-18T10:45:16.977Z,-1.71
2022-12-18T10:47:47.432Z,-1.70
2022-12-18T10:50:40.723Z,-1.61
2022-12-18T10:53:20.963Z,-1.60
2022-12-18T10:55:48.348Z,-1.49
2022-12-18T10:58:38.111Z,-1.37
2022-12-18T11:01:12.244Z,-1.33
2022-12-18T11:03:42.899Z,-1.19
2022-12-18T11:06:12.075Z,-1.24
2022-12-18T11:08:39.820Z,-1.26
2022-12-18T11:11:17.342Z,-1.26
2022-12-18T11:14:06.329Z,-1.26
2022-12-18T11:16:57.929Z,-1.26
2022-12-18T11:19:34.931Z,-1.20
2022-12-18T11:22:04.516Z,-1.08
2022-12-18T11:24:36.383Z,-0.94
2022-12-18T11:27:05.616Z,-0.84
2022-12-18T11:29:46.249Z,-0.74
2022-12-18T11:32:16.160Z,-0.65
2022-12-18T11:34:47.428Z,-0.57
2022-12-18T11:37:16.724Z,-0.50
2022-12-18T11:39:53.986Z,-0.47
2022-12-18T11:42:37.011Z,-0.39
2022-12-18T11:45:13.902Z,-0.40
2022-12-18T11:47:50.008Z,-0.32
2022-12-18T11:50:24.968Z,-0.19
2022-12-18T11:52:56.721Z,-0.08
2022-12-18T11:55:40.824Z,0.12
2022-12-18T11:58:42.884Z,0.30
2022-12-18T12:01:24.423Z,0.46
2022-12-18T12:04:15.569Z,0.66
2022-12-18T12:07:04.833Z,0.69
2022-12-18T12:09:49.624Z,0.65
2022-12-18T12:12:49.124Z,0.78
2022-12-18T12:15:33.265Z,0.89
2022-12-18T12:18:19.489Z,0.99
2022-12-18T12:21:11.096Z,1.08
2022-12-18T12:23:43.609Z,1.29
2022-12-18T12:26:22.060Z,1.17
2022-12-18T12:28:54.540Z,1.03
2022-12-18T12:31:24.039Z,0.87
2022-12-18T12:34:15.531Z,0.80
2022-12-18T12:37:20.302Z,0.87
2022-12-18T12:39:48.567Z,0.99
2022-12-18T12:42:43.647Z,1.02
2022-12-18T12:45:19.533Z,1.11
2022-12-18T12:47:49.433Z,1.18
2022-12-18T12:50:21.212Z,1.16
2022-12-18T12:52:53.546Z,1.12
2022-12-18T12:55:27.568Z,1.17
2022-12-18T12:58:06.323Z,1.17
2022-12-18T13:00:45.184Z,1.23
2022-12-18T13:03:42.426Z,1.20
2022-12-18T13:06:36.930Z,1.02
2022-12-18T13:09:06.189Z,0.99
2022-12-18T13:12:00.428Z,1.02
2022-12-18T13:14:36.659Z,1.06
2022-12-18T13:17:21.193Z,1.07
2022-12-18T13:20:08.980Z,1.06
2022-12-18T13:22:39.079Z,0.90
2022-12-18T13:25:35.274Z,0.80
2022-12-18T13:28:12.212Z,0.76
2022-12-18T13:30:41.870Z,0.69
2022-12-18T13:33:15.160Z,0.64
2022-12-18T13:36:03.712Z,0.54
2022-12-18T13:38:32.892Z,0.53
2022-12-18T13:41:01.037Z,0.46
2022-12-18T13:43:59.140Z,0.40
2022-12-18T13:46:42.843Z,0.37
2022-12-18T13:49:15.493Z,0.36
2022-12-18T13:51:50.457Z,0.39
2022-12-18T13:54:42.229Z,0.19
2022-12-18T13:57:31.818Z,0.13
2022-12-18T13:59:59.089Z,0.01
2022-12-18T14:02:28.289Z,0.02
2022-12-18T14:04:56.438Z,-0.01
2022-12-18T14:07:26.244Z,-0.05
2022-12-18T14:10:06.483Z,-0.05
2022-12-18T14:12:57.506Z,-0.07
2022-12-18T14:15:27.045Z,-0.07
2022-12-18T14:18:00.124Z,-0.07
2022-12-18T14:20:29.502Z,-0.09
2022-12-18T14:22:57.761Z,-0.07
2022-12-18T14:25:27.483Z,-0.14
2022-12-18T14:28:08.809Z,-0.14
2022-12-18T14:30:41.264Z,-0.20
2022-12-18T14:33:19.738Z,-0.34
2022-12-18T14:36:06.034Z,-0.39
2022-12-18T14:38:37.637Z,-0.48
2022-12-18T14:41:11.459Z,-0.49
2022-12-18T14:43:41.038Z,-0.47
2022-12-18T14:46:34.134Z,-0.45
2022-12-18T14:49:04.033Z,-0.55
2022-12-18T14:51:33.739Z,-0.60
2022-12-18T14:54:08.888Z,-0.67
2022-12-18T14:56:37.926Z,-0.71
2022-12-18T14:59:07.480Z,-0.77
2022-12-18T15:01:40.479Z,-0.80
2022-12-18T15:04:28.447Z,-0.92
2022-12-18T15:07:14.607Z,-1.15
2022-12-18T15:09:45.415Z,-1.24
2022-12-18T15:12:29.720Z,-1.41
2022-12-18T15:14:56.396Z,-1.43
2022-12-18T15:17:24.698Z,-1.47
2022-12-18T15:20:02.206Z,-1.55
2022-12-18T15:22:48.329Z,-1.62
2022-12-18T15:25:37.605Z,-1.78
2022-12-18T15:28:05.025Z,-1.91
2022-12-18T15:30:32.455Z,-1.94
2022-12-18T15:33:25.740Z,-1.94
2022-12-18T15:36:04.154Z,-2.00
2022-12-18T15:38:31.120Z,-2.11
2022-12-18T15:40:57.926Z,-2.10
2022-12-18T15:43:37.934Z,-2.13
2022-12-18T15:46:13.248Z,-2.19
2022-12-18T15:48:45.279Z,-2.30
2022-12-18T15:51:17.128Z,-2.27
2022-12-18T15:53:44.489Z,-2.17
2022-12-18T15:56:34.275Z,-2.15
2022-12-18T15:59:02.144Z,-2.15
2022-12-18T16:01:31.149Z,-2.13
2022-12-18T16:03:57.922Z,-2.19
2022-12-18T16:06:24.734Z,-2.35
2022-12-18T16:08:51.459Z,-2.51
2022-12-18T16:11:38.980Z,-2.47
2022-12-18T16:14:15.910Z,-2.32
2022-12-18T16:16:42.766Z,-2.29
2022-12-18T16:19:09.246Z,-2.28
2022-12-18T16:21:36.283Z,-2.27
2022-12-18T16:24:03.001Z,-2.28
2022-12-18T16:26:29.512Z,-2.22
2022-12-18T16:28:55.925Z,-2.05
2022-12-18T16:31:22.754Z,-2.08
2022-12-18T16:33:49.576Z,-2.08
2022-12-18T16:36:16.073Z,-2.01
2022-12-18T16:38:42.942Z,-1.96
2022-12-18T16:41:32.314Z,-2.05
2022-12-18T16:44:02.506Z,-2.08
2022-12-18T16:46:29.263Z,-2.07
2022-12-18T16:48:58.255Z,-2.04
2022-12-18T16:51:24.765Z,-2.04
2022-12-18T16:53:51.276Z,-2.01
2022-12-18T16:56:17.737Z,-1.96
2022-12-18T16:58:44.357Z,-1.93
2022-12-18T17:01:12.169Z,-1.89
2022-12-18T17:03:40.314Z,-1.96
2022-12-18T17:06:07.396Z,-1.95
2022-12-18T17:08:33.871Z,-1.89
2022-12-18T17:11:09.546Z,-1.91
2022-12-18T17:13:36.138Z,-1.93
2022-12-18T17:16:07.732Z,-1.88
2022-12-18T17:18:35.130Z,-1.86
2022-12-18T17:21:03.248Z,-1.83
2022-12-18T17:23:30.428Z,-1.80
2022-12-18T17:25:58.325Z,-1.79
2022-12-18T17:28:26.161Z,-1.78
2022-12-18T17:30:53.963Z,-1.78
2022-12-18T17:33:21.154Z,-1.78
2022-12-18T17:35:47.745Z,-1.77
2022-12-18T17:38:15.043Z,-1.76
2022-12-18T17:40:46.059Z,-1.74
2022-12-18T17:43:13.171Z,-1.77
2022-12-18T17:45:40.372Z,-1.79
2022-12-18T17:48:08.310Z,-1.76
2022-12-18T17:50:35.772Z,-1.70
2022-12-18T17:53:02.854Z,-1.72
2022-12-18T17:55:29.933Z,-1.80
2022-12-18T17:57:56.411Z,-1.81
2022-12-18T18:00:23.067Z,-1.82
2022-12-18T18:02:49.779Z,-1.80
2022-12-18T18:05:16.500Z,-1.77
2022-12-18T18:07:42.962Z,-1.78
2022-12-18T18:10:09.774Z,-1.71
2022-12-18T18:16:22.640Z,-1.84
2022-12-18T18:18:49.087Z,-1.85
2022-12-18T18:21:15.540Z,-1.82
2022-12-18T18:23:42.475Z,-1.82
2022-12-18T18:26:11.032Z,-1.84
2022-12-18T18:28:37.470Z,-1.81
2022-12-18T18:31:06.147Z,-1.79
2022-12-18T18:33:33.643Z,-1.77
2022-12-18T18:36:00.355Z,-1.73
2022-12-18T18:38:29.135Z,-1.74
2022-12-18T18:41:02.838Z,-1.81
2022-12-18T18:43:30.379Z,-1.78
2022-12-18T18:46:01.245Z,-1.73
2022-12-18T18:48:30.966Z,-1.66
2022-12-18T18:51:00.799Z,-1.70
2022-12-18T18:53:28.437Z,-1.67
2022-12-18T18:56:34.536Z,-1.71
2022-12-18T18:58:45.704Z,-1.62
2022-12-18T19:01:17.501Z,-1.53
2022-12-18T19:03:44.930Z,-1.52
2022-12-18T19:06:14.896Z,-1.47
2022-12-18T19:08:42.054Z,-1.44
2022-12-18T19:11:31.807Z,-1.47
2022-12-18T19:14:08.044Z,-1.48
2022-12-18T19:16:35.493Z,-1.50
2022-12-18T19:19:03.514Z,-1.53
2022-12-18T19:21:31.406Z,-1.56
2022-12-18T19:24:00.809Z,-1.60
2022-12-18T19:26:28.506Z,-1.64
2022-12-18T19:29:01.532Z,-1.67
2022-12-18T19:31:33.362Z,-1.71
2022-12-18T19:34:02.333Z,-1.81
2022-12-18T19:36:30.909Z,-1.82
2022-12-18T19:39:00.347Z,-1.82
2022-12-18T19:41:31.295Z,-1.87
2022-12-18T19:44:07.345Z,-1.87
2022-12-18T19:46:36.054Z,-1.86
2022-12-18T19:49:03.976Z,-1.81
2022-12-18T19:51:32.049Z,-1.80
2022-12-18T19:54:01.388Z,-1.77
2022-12-18T19:56:31.007Z,-1.76
2022-12-18T19:58:58.307Z,-1.74
2022-12-18T20:01:25.784Z,-1.69
2022-12-18T20:03:53.744Z,-1.62
2022-12-18T20:06:34.267Z,-1.57
2022-12-18T20:09:04.786Z,-1.52
2022-12-18T20:11:33.357Z,-1.53
2022-12-18T20:14:04.411Z,-1.71
2022-12-18T20:16:33.087Z,-1.61
2022-12-18T20:19:00.246Z,-1.45
2022-12-18T20:21:26.967Z,-1.38
2022-12-18T20:23:54.824Z,-1.30
2022-12-18T20:26:22.403Z,-1.32
2022-12-18T20:28:48.877Z,-1.42
2022-12-18T20:31:15.490Z,-1.35
2022-12-18T20:33:42.717Z,-1.25
2022-12-18T20:36:15.380Z,-1.26
2022-12-18T20:38:43.444Z,-1.27
2022-12-18T20:41:16.350Z,-1.16
2022-12-18T20:43:44.113Z,-1.20
2022-12-18T20:46:13.169Z,-1.24
2022-12-18T20:48:40.863Z,-1.16
2022-12-18T20:51:13.297Z,-1.07
2022-12-18T20:53:41.809Z,-1.05
2022-12-18T20:56:21.517Z,-0.87
2022-12-18T20:58:49.497Z,-0.67
2022-12-18T21:01:21.626Z,-0.50
2022-12-18T21:03:48.988Z,-0.47
2022-12-18T21:06:17.941Z,-0.50
2022-12-18T21:08:44.832Z,-0.80
2022-12-18T21:11:39.213Z,-0.44
2022-12-18T21:14:10.053Z,-0.41
2022-12-18T21:16:36.807Z,-0.41
2022-12-18T21:19:04.684Z,-0.36
2022-12-18T21:21:37.224Z,-0.46
2022-12-18T21:24:06.136Z,-0.92
2022-12-18T21:26:32.711Z,-0.60
2022-12-18T21:29:01.647Z,-0.65
2022-12-18T21:31:36.454Z,-0.72
2022-12-18T21:34:03.909Z,-0.97
2022-12-18T21:36:31.795Z,-0.98
2022-12-18T21:38:59.134Z,-0.87
2022-12-18T21:41:44.879Z,-0.79
2022-12-18T21:44:14.541Z,-0.74
2022-12-18T21:46:44.036Z,-0.72
2022-12-18T21:49:11.990Z,-0.73
2022-12-18T21:51:39.433Z,-0.77
2022-12-18T21:54:06.062Z,-0.77
2022-12-18T21:56:52.283Z,-0.75
2022-12-18T21:59:20.217Z,-0.74
2022-12-18T22:01:48.137Z,-0.80
2022-12-18T22:04:16.154Z,-0.86
2022-12-18T22:06:43.334Z,-0.89
2022-12-18T22:09:12.488Z,-0.88
2022-12-18T22:11:39.560Z,-0.85
2022-12-18T22:14:06.637Z,-0.82
2022-12-18T22:16:33.530Z,-0.81
2022-12-18T22:19:01.936Z,-0.85
2022-12-18T22:21:31.249Z,-0.81
2022-12-18T22:24:03.635Z,-0.81
2022-12-18T22:26:36.499Z,-0.74
2022-12-18T22:29:25.322Z,-0.66
2022-12-18T22:31:52.471Z,-0.75
2022-12-18T22:34:22.812Z,-0.65
2022-12-18T22:36:49.763Z,-0.61
2022-12-18T22:39:24.514Z,-0.57
2022-12-18T22:41:51.837Z,-0.47
2022-12-18T22:44:18.840Z,-0.41
2022-12-18T22:47:05.646Z,-0.39
2022-12-18T22:49:33.895Z,-0.48
2022-12-18T22:52:01.545Z,-0.67
2022-12-18T22:54:28.168Z,-0.90
2022-12-18T22:56:55.500Z,-0.59
2022-12-18T22:59:23.358Z,-0.44
2022-12-18T23:01:51.442Z,-0.51
2022-12-18T23:04:28.469Z,-0.36
2022-12-18T23:07:02.676Z,-0.48
2022-12-18T23:09:29.286Z,-0.60
2022-12-18T23:11:55.796Z,-0.64
2022-12-18T23:14:22.322Z,-0.47
2022-12-18T23:16:49.240Z,-0.33
2022-12-18T23:19:17.912Z,-0.30
2022-12-18T23:21:44.378Z,-0.27
2022-12-18T23:24:10.959Z,-0.23
2022-12-18T23:26:37.625Z,-0.16
2022-12-18T23:29:04.665Z,-0.15
2022-12-18T23:31:36.331Z,-0.19
2022-12-18T23:34:05.058Z,-0.20
2022-12-18T23:36:35.257Z,-0.26
2022-12-18T23:39:15.415Z,-0.34
2022-12-18T23:41:55.929Z,-0.25
2022-12-18T23:44:22.391Z,-0.24
2022-12-18T23:46:48.933Z,-0.45
2022-12-18T23:49:15.456Z,-0.41
2022-12-18T23:51:42.169Z,-0.38
2022-12-18T23:54:09.991Z,-0.36
2022-12-18T23:56:36.478Z,-0.78
2022-12-18T23:59:02.927Z,-0.67
